createdAt,value
2022-09-09T00:00:00.184Z,11.4
2022-09-09T00:05:00.162Z,11.4
2022-09-09T00:10:00.174Z,11.3
2022-09-09T00:15:00.169Z,11.2
2022-09-09T00:20:00.169Z,11.2
2022-09-09T00:25:00.162Z,11.2
2022-09-09T00:30:00.181Z,11.1
2022-09-09T00:35:00.164Z,11.1
2022-09-09T00:40:00.257Z,11.1
2022-09-09T00:45:00.173Z,11.1
2022-09-09T00:50:01.371Z,11.2
2022-09-09T00:55:00.165Z,11.2
2022-09-09T01:00:00.203Z,11.4
2022-09-09T01:05:00.156Z,11.4
2022-09-09T01:10:00.167Z,11.6
2022-09-09T01:15:00.155Z,11.6
2022-09-09T01:20:00.162Z,11.6
2022-09-09T01:25:00.160Z,11.6
2022-09-09T01:30:00.181Z,11.6
2022-09-09T01:35:00.164Z,11.6
2022-09-09T01:40:00.356Z,11.8
2022-09-09T01:45:00.178Z,11.9
2022-09-09T01:50:00.183Z,12
2022-09-09T01:55:00.168Z,12.1
2022-09-09T02:00:00.177Z,12.3
2022-09-09T02:05:00.483Z,12.4
2022-09-09T02:10:00.242Z,12.5
2022-09-09T02:15:00.138Z,12.6
2022-09-09T02:20:00.173Z,12.8
2022-09-09T02:25:00.174Z,12.8
2022-09-09T02:30:00.174Z,13
2022-09-09T02:35:00.158Z,13.2
2022-09-09T02:40:00.282Z,13.4
2022-09-09T02:45:00.185Z,13.6
2022-09-09T02:50:00.168Z,13.6
2022-09-09T02:55:00.184Z,13.6
2022-09-09T03:00:00.191Z,13.7
2022-09-09T03:05:00.155Z,13.7
2022-09-09T03:10:00.179Z,13.8
2022-09-09T03:15:00.266Z,13.8
2022-09-09T03:20:00.154Z,13.8
2022-09-09T03:25:00.164Z,13.8
2022-09-09T03:30:00.167Z,13.9
2022-09-09T03:35:00.214Z,13.9
2022-09-09T03:40:00.277Z,13.9
2022-09-09T03:45:00.153Z,13.9
2022-09-09T03:50:00.191Z,13.9
2022-09-09T03:55:00.338Z,13.9
2022-09-09T04:00:00.194Z,13.9
2022-09-09T04:05:00.240Z,13.9
2022-09-09T04:10:00.171Z,13.8
2022-09-09T04:15:00.172Z,13.8
2022-09-09T04:20:00.172Z,13.7
2022-09-09T04:25:00.155Z,13.7
2022-09-09T04:30:00.174Z,13.7
2022-09-09T04:35:00.167Z,13.7
2022-09-09T04:40:00.333Z,13.7
2022-09-09T04:45:00.164Z,13.6
2022-09-09T04:50:00.163Z,13.6
2022-09-09T04:55:00.176Z,13.6
2022-09-09T05:00:00.161Z,13.6
2022-09-09T05:05:00.159Z,13.5
2022-09-09T05:10:00.170Z,13.5
2022-09-09T05:15:00.164Z,13.5
2022-09-09T05:20:00.182Z,13.5
2022-09-09T05:25:00.166Z,13.5
2022-09-09T05:30:00.192Z,13.6
2022-09-09T05:35:00.286Z,13.6
2022-09-09T05:40:00.339Z,13.6
2022-09-09T05:45:00.214Z,13.7
2022-09-09T05:50:00.183Z,13.8
2022-09-09T05:55:00.181Z,13.9
2022-09-09T06:00:00.174Z,13.9
2022-09-09T06:05:00.831Z,13.9
2022-09-09T06:10:00.173Z,14
2022-09-09T06:15:00.160Z,14.2
2022-09-09T06:20:00.183Z,14.3
2022-09-09T06:30:00.397Z,14.6
2022-09-09T06:35:00.160Z,14.6
2022-09-09T06:40:00.359Z,14.8
2022-09-09T06:45:00.174Z,14.9
2022-09-09T06:50:00.703Z,14.9
2022-09-09T06:55:00.158Z,15.1
2022-09-09T07:00:00.350Z,15.1
2022-09-09T07:05:00.213Z,15.1
2022-09-09T07:10:00.170Z,14.9
2022-09-09T07:15:00.178Z,14.9
2022-09-09T07:20:00.172Z,15.1
2022-09-09T07:25:00.170Z,15.2
2022-09-09T07:30:00.254Z,15.3
2022-09-09T07:35:00.158Z,15.6
2022-09-09T07:40:00.340Z,15.6
2022-09-09T07:45:00.168Z,15.9
2022-09-09T07:50:00.176Z,16
2022-09-09T07:55:01.474Z,16.3
2022-09-09T08:00:00.174Z,16.8
2022-09-09T08:05:00.166Z,17.4
2022-09-09T08:10:00.519Z,17.6
2022-09-09T08:15:00.224Z,17.8
2022-09-09T08:20:00.171Z,17.8
2022-09-09T08:25:00.159Z,17.5
2022-09-09T08:30:00.182Z,17.9
2022-09-09T08:35:01.529Z,17.9
2022-09-09T08:40:00.342Z,17.9
2022-09-09T08:45:00.154Z,18
2022-09-09T08:50:00.174Z,18.2
2022-09-09T08:55:00.174Z,18.4
2022-09-09T09:00:00.179Z,18.4
2022-09-09T09:05:00.319Z,18.2
2022-09-09T09:10:00.205Z,18.2
2022-09-09T09:15:00.166Z,18.9
2022-09-09T09:20:00.182Z,19.6
2022-09-09T09:25:00.157Z,19.7
2022-09-09T09:30:28.528Z,19.9
2022-09-09T09:35:00.183Z,20
2022-09-09T09:40:03.453Z,19.9
2022-09-09T09:45:00.197Z,19.4
2022-09-09T09:50:00.187Z,19
2022-09-09T09:55:02.893Z,18.9
2022-09-09T10:00:00.167Z,19
2022-09-09T10:05:00.293Z,19.5
2022-09-09T10:10:00.232Z,20.1
2022-09-09T10:15:00.163Z,20.3
2022-09-09T10:20:00.293Z,20.6
2022-09-09T10:25:00.171Z,20.6
2022-09-09T10:30:00.239Z,20.2
2022-09-09T10:35:00.261Z,20.2
2022-09-09T10:40:00.322Z,20.1
2022-09-09T10:45:01.150Z,19.7
2022-09-09T10:50:00.242Z,19.6
2022-09-09T10:55:00.246Z,19.6
2022-09-09T11:00:00.273Z,19.6
2022-09-09T11:05:00.248Z,19.2
2022-09-09T11:10:00.435Z,19.1
2022-09-09T11:15:00.525Z,19.2
2022-09-09T11:20:00.163Z,19.4
2022-09-09T11:25:00.202Z,19.5
2022-09-09T11:30:00.208Z,19.7
2022-09-09T11:35:00.165Z,20
2022-09-09T11:40:00.346Z,20.2
2022-09-09T11:45:00.166Z,20.9
2022-09-09T11:50:00.173Z,21.2
2022-09-09T11:55:00.260Z,21.4
2022-09-09T12:00:00.224Z,21.6
2022-09-09T12:05:00.285Z,21.4
2022-09-09T12:10:00.293Z,20.9
2022-09-09T12:15:00.258Z,20.4
2022-09-09T12:20:00.182Z,20.1
2022-09-09T12:25:00.179Z,19.9
2022-09-09T12:30:00.201Z,19.9
2022-09-09T12:35:00.187Z,19.8
2022-09-09T12:40:00.324Z,19.8
2022-09-09T12:45:00.171Z,20
2022-09-09T12:50:00.187Z,20.3
2022-09-09T12:55:00.164Z,20.7
2022-09-09T13:00:00.181Z,21.1
2022-09-09T13:05:00.545Z,21.6
2022-09-09T13:10:00.194Z,22.1
2022-09-09T13:15:00.178Z,22.6
2022-09-09T13:20:00.186Z,22.7
2022-09-09T13:25:00.173Z,22.9
2022-09-09T13:30:00.235Z,22.8
2022-09-09T13:35:00.188Z,22.8
2022-09-09T13:40:00.514Z,22.6
2022-09-09T13:45:00.179Z,22.4
2022-09-09T13:50:00.419Z,22.1
2022-09-09T13:55:00.186Z,22.1
2022-09-09T14:00:06.098Z,21.9
2022-09-09T14:05:00.164Z,22
2022-09-09T14:10:00.238Z,21.9
2022-09-09T14:15:00.205Z,22
2022-09-09T14:20:00.296Z,21.9
2022-09-09T14:25:00.614Z,21.8
2022-09-09T14:30:00.178Z,21.9
2022-09-09T14:35:00.186Z,21.8
2022-09-09T14:40:00.350Z,21.7
2022-09-09T14:45:00.413Z,21.9
2022-09-09T14:50:00.174Z,21.8
2022-09-09T14:55:00.161Z,21.7
2022-09-09T15:00:00.184Z,21.4
2022-09-09T15:05:00.158Z,21.5
2022-09-09T15:10:00.188Z,21.1
2022-09-09T15:15:00.172Z,20.8
2022-09-09T15:20:00.166Z,20.6
2022-09-09T15:25:00.177Z,20.4
2022-09-09T15:30:00.200Z,20.6
2022-09-09T15:35:00.280Z,20.4
2022-09-09T15:40:00.299Z,20.4
2022-09-09T15:45:00.679Z,20.4
2022-09-09T15:50:00.186Z,20.4
2022-09-09T15:55:00.238Z,20.4
2022-09-09T16:00:00.180Z,20.4
2022-09-09T16:05:00.157Z,20.2
2022-09-09T16:10:00.181Z,20
2022-09-09T16:15:00.173Z,19.9
2022-09-09T16:20:00.180Z,19.6
2022-09-09T16:25:00.196Z,19.5
2022-09-09T16:30:00.175Z,19.4
2022-09-09T16:35:00.192Z,19.2
2022-09-09T16:40:00.337Z,18.8
2022-09-09T16:45:00.161Z,18.6
2022-09-09T16:50:00.185Z,18.3
2022-09-09T16:55:00.171Z,18.2
2022-09-09T17:00:00.339Z,18.1
2022-09-09T17:05:00.170Z,17.9
2022-09-09T17:10:00.182Z,17.8
2022-09-09T17:15:00.171Z,17.6
2022-09-09T17:20:00.197Z,17.5
2022-09-09T17:25:00.196Z,17.4
2022-09-09T17:30:00.162Z,17.3
2022-09-09T17:35:00.193Z,17.2
2022-09-09T17:40:00.309Z,17.2
2022-09-09T17:45:00.165Z,17.1
2022-09-09T17:50:00.179Z,17.1
2022-09-09T17:55:00.208Z,16.9
2022-09-09T18:00:00.202Z,16.8
2022-09-09T18:05:00.172Z,16.7
2022-09-09T18:10:00.176Z,16.7
2022-09-09T18:15:03.977Z,16.7
2022-09-09T18:20:00.287Z,16.6
2022-09-09T18:25:00.267Z,16.6
2022-09-09T18:30:00.204Z,16.5
2022-09-09T18:35:00.209Z,16.4
2022-09-09T18:40:00.282Z,16.2
2022-09-09T18:45:00.178Z,16.1
2022-09-09T18:50:00.162Z,15.9
2022-09-09T18:55:00.164Z,15.8
2022-09-09T19:00:00.185Z,15.7
2022-09-09T19:05:00.174Z,15.4
2022-09-09T19:10:00.196Z,15.2
2022-09-09T19:15:00.159Z,15
2022-09-09T19:20:00.152Z,14.7
2022-09-09T19:25:00.157Z,14.6
2022-09-09T19:30:00.187Z,14.6
2022-09-09T19:35:00.168Z,14.5
2022-09-09T19:40:00.268Z,14.5
2022-09-09T19:45:00.185Z,14.5
2022-09-09T19:50:00.184Z,14.4
2022-09-09T19:55:00.164Z,14.4
2022-09-09T20:00:00.162Z,14.5
2022-09-09T20:05:00.176Z,14.4
2022-09-09T20:10:00.197Z,14.4
2022-09-09T20:15:00.163Z,14.4
2022-09-09T20:20:00.163Z,14.4
2022-09-09T20:25:00.155Z,14.4
2022-09-09T20:30:00.174Z,14.3
2022-09-09T20:35:00.155Z,14.2
2022-09-09T20:40:00.218Z,14.1
2022-09-09T20:45:00.179Z,14.1
2022-09-09T20:50:00.177Z,14.1
2022-09-09T20:55:00.161Z,14.1
2022-09-09T21:00:00.163Z,14.1
2022-09-09T21:05:00.167Z,14.1
2022-09-09T21:10:00.204Z,14.1
2022-09-09T21:15:00.163Z,14.1
2022-09-09T21:20:00.197Z,14.1
2022-09-09T21:25:00.178Z,14.1
2022-09-09T21:30:00.172Z,14
2022-09-09T21:35:00.387Z,13.8
2022-09-09T21:40:00.382Z,13.8
2022-09-09T21:45:00.174Z,13.7
2022-09-09T21:50:00.206Z,13.7
2022-09-09T21:55:00.169Z,13.7
2022-09-09T22:00:00.191Z,13.7
2022-09-09T22:05:00.179Z,13.6
2022-09-09T22:10:00.159Z,13.5
2022-09-09T22:15:00.160Z,13.5
2022-09-09T22:20:00.160Z,13.4
2022-09-09T22:25:00.164Z,13.3
2022-09-09T22:30:00.165Z,13.1
2022-09-09T22:35:00.170Z,12.9
2022-09-09T22:40:00.176Z,12.8
2022-09-09T22:45:00.182Z,12.8
2022-09-09T22:50:00.175Z,12.6
2022-09-09T22:55:00.179Z,12.5
2022-09-09T23:00:00.174Z,12.2
2022-09-09T23:05:00.155Z,12.2
2022-09-09T23:10:00.259Z,12.2
2022-09-09T23:15:00.484Z,12.1
2022-09-09T23:20:00.305Z,12
2022-09-09T23:25:00.191Z,11.9
2022-09-09T23:30:00.172Z,11.8
2022-09-09T23:35:00.190Z,11.8
2022-09-09T23:40:00.250Z,11.9
2022-09-09T23:45:00.169Z,11.7
2022-09-09T23:50:00.201Z,11.6
2022-09-09T23:55:00.178Z,11.5
